createdAt,value
2019-05-12T00:00:00.405Z,5
2019-05-12T00:01:01.699Z,5
2019-05-12T00:02:10.138Z,4.9
2019-05-12T00:03:01.061Z,4.9
2019-05-12T00:03:59.901Z,4.9
2019-05-12T00:05:11.424Z,4.9
2019-05-12T00:06:00.139Z,4.9
2019-05-12T00:07:01.083Z,4.9
2019-05-12T00:08:01.572Z,4.9
2019-05-12T00:09:00.266Z,4.9
2019-05-12T00:10:18.110Z,4.9
2019-05-12T00:11:01.157Z,4.9
2019-05-12T00:12:00.710Z,4.9
2019-05-12T00:13:00.105Z,4.9
2019-05-12T00:14:01.417Z,4.9
2019-05-12T00:15:00.760Z,4.9
2019-05-12T00:16:05.043Z,4.8
2019-05-12T00:17:00.586Z,4.8
2019-05-12T00:18:11.022Z,4.8
2019-05-12T00:19:20.838Z,4.8
2019-05-12T00:20:10.830Z,4.8
2019-05-12T00:21:10.825Z,4.8
2019-05-12T00:22:21.083Z,4.8
2019-05-12T00:23:30.358Z,4.8
2019-05-12T00:24:01.787Z,4.8
2019-05-12T00:25:08.749Z,4.8
2019-05-12T00:26:11.119Z,4.7
2019-05-12T00:27:20.047Z,4.7
2019-05-12T00:28:00.807Z,4.7
2019-05-12T00:29:00.875Z,4.7
2019-05-12T00:30:00.642Z,4.7
2019-05-12T00:31:02.727Z,4.7
2019-05-12T00:32:01.066Z,4.7
2019-05-12T00:33:00.623Z,4.7
2019-05-12T00:34:07.631Z,4.7
2019-05-12T00:35:10.492Z,4.6
2019-05-12T00:36:01.086Z,4.6
2019-05-12T00:37:00.094Z,4.6
2019-05-12T00:38:00.125Z,4.6
2019-05-12T00:39:10.978Z,4.6
2019-05-12T00:40:04.196Z,4.6
2019-05-12T00:41:03.165Z,4.6
2019-05-12T00:42:03.716Z,4.6
2019-05-12T00:43:00.076Z,4.6
2019-05-12T00:44:00.806Z,4.6
2019-05-12T00:45:00.335Z,4.7
2019-05-12T00:46:05.419Z,4.6
2019-05-12T00:47:00.303Z,4.6
2019-05-12T00:48:00.203Z,4.6
2019-05-12T00:49:00.805Z,4.6
2019-05-12T00:50:04.402Z,4.6
2019-05-12T00:51:00.660Z,4.6
2019-05-12T00:52:00.802Z,4.6
2019-05-12T00:53:01.165Z,4.6
2019-05-12T00:54:00.848Z,4.6
2019-05-12T00:55:00.421Z,4.6
2019-05-12T00:56:10.625Z,4.6
2019-05-12T00:57:01.644Z,4.6
2019-05-12T00:58:00.398Z,4.6
2019-05-12T00:59:13.842Z,4.7
2019-05-12T01:00:03.307Z,4.7
2019-05-12T01:01:10.937Z,4.6
2019-05-12T01:02:00.901Z,4.6
2019-05-12T01:03:00.937Z,4.6
2019-05-12T01:04:14.619Z,4.6
2019-05-12T01:04:59.961Z,4.6
2019-05-12T01:06:00.566Z,4.7
2019-05-12T01:07:01.042Z,4.7
2019-05-12T01:08:01.487Z,4.7
2019-05-12T01:09:01.062Z,4.7
2019-05-12T01:10:14.860Z,4.7
2019-05-12T01:11:00.926Z,4.7
2019-05-12T01:12:00.924Z,4.7
2019-05-12T01:13:00.961Z,4.7
2019-05-12T01:14:11.220Z,4.7
2019-05-12T01:15:07.461Z,4.7
2019-05-12T01:16:01.161Z,4.7
2019-05-12T01:17:03.807Z,4.7
2019-05-12T01:18:21.785Z,4.7
2019-05-12T01:19:23.576Z,4.7
2019-05-12T01:20:11.155Z,4.7
2019-05-12T01:21:00.820Z,4.7
2019-05-12T01:22:01.234Z,4.7
2019-05-12T01:23:01.017Z,4.7
2019-05-12T01:24:21.521Z,4.8
2019-05-12T01:25:00.970Z,4.8
2019-05-12T01:26:01.239Z,4.8
2019-05-12T01:27:00.722Z,4.8
2019-05-12T01:28:01.440Z,4.8
2019-05-12T01:29:01.282Z,4.8
2019-05-12T01:30:00.639Z,4.8
2019-05-12T01:31:40.966Z,4.8
2019-05-12T01:32:02.036Z,4.8
2019-05-12T01:33:21.383Z,4.8
2019-05-12T01:34:20.334Z,4.8
2019-05-12T01:35:10.258Z,4.8
2019-05-12T01:36:01.078Z,4.8
2019-05-12T01:37:20.719Z,4.8
2019-05-12T01:38:10.501Z,4.8
2019-05-12T01:39:04.360Z,4.8
2019-05-12T01:40:20.959Z,4.8
2019-05-12T01:41:20.134Z,4.7
2019-05-12T01:42:25.327Z,4.8
2019-05-12T01:43:00.077Z,4.8
2019-05-12T01:44:01.300Z,4.7
2019-05-12T01:45:11.159Z,4.7
2019-05-12T01:46:00.924Z,4.7
2019-05-12T01:47:00.729Z,4.7
2019-05-12T01:48:00.922Z,4.7
2019-05-12T01:49:01.377Z,4.7
2019-05-12T01:50:00.846Z,4.7
2019-05-12T01:51:00.322Z,4.7
2019-05-12T01:52:04.361Z,4.7
2019-05-12T01:53:07.802Z,4.7
2019-05-12T01:54:15.278Z,4.7
2019-05-12T01:55:00.753Z,4.7
2019-05-12T01:56:07.815Z,4.7
2019-05-12T01:57:00.866Z,4.7
2019-05-12T01:58:00.672Z,4.7
2019-05-12T01:59:01.374Z,4.7
2019-05-12T02:00:09.841Z,4.8
2019-05-12T02:01:04.949Z,4.8
2019-05-12T02:02:00.344Z,4.8
2019-05-12T02:03:05.858Z,4.9
2019-05-12T02:04:01.884Z,4.9
2019-05-12T02:05:04.322Z,4.9
2019-05-12T02:06:00.516Z,4.9
2019-05-12T02:07:00.650Z,5
2019-05-12T02:08:01.665Z,5
2019-05-12T02:09:10.718Z,5
2019-05-12T02:10:00.761Z,5
2019-05-12T02:11:01.884Z,5.1
2019-05-12T02:12:00.699Z,5.1
2019-05-12T02:13:02.966Z,5.1
2019-05-12T02:14:00.279Z,5.1
2019-05-12T02:15:04.321Z,5.1
2019-05-12T02:16:10.961Z,5.1
2019-05-12T02:17:00.759Z,5.1
2019-05-12T02:18:04.605Z,5.1
2019-05-12T02:19:10.887Z,5.1
2019-05-12T02:20:01.340Z,5.1
2019-05-12T02:21:10.345Z,5.2
2019-05-12T02:22:00.640Z,5.2
2019-05-12T02:23:00.345Z,5.2
2019-05-12T02:24:07.566Z,5.2
2019-05-12T02:25:01.520Z,5.2
2019-05-12T02:26:01.158Z,5.2
2019-05-12T02:27:01.193Z,5.2
2019-05-12T02:28:11.640Z,5.2
2019-05-12T02:29:00.367Z,5.2
2019-05-12T02:30:00.693Z,5.2
2019-05-12T02:31:01.881Z,5.2
2019-05-12T02:32:00.573Z,5.2
2019-05-12T02:33:05.143Z,5.2
2019-05-12T02:34:01.046Z,5.2
2019-05-12T02:35:05.298Z,5.2
2019-05-12T02:36:04.304Z,5.2
2019-05-12T02:37:09.677Z,5.2
2019-05-12T02:37:59.729Z,5.2
2019-05-12T02:39:00.648Z,5.2
2019-05-12T02:40:00.045Z,5.2
2019-05-12T02:41:00.859Z,5.2
2019-05-12T02:42:00.481Z,5.2
2019-05-12T02:43:00.275Z,5.2
2019-05-12T02:44:07.939Z,5.2
2019-05-12T02:45:01.042Z,5.2
2019-05-12T02:46:09.662Z,5.2
2019-05-12T02:47:00.233Z,5.2
2019-05-12T02:48:04.974Z,5.2
2019-05-12T02:48:59.944Z,5.2
2019-05-12T02:50:00.009Z,5.2
2019-05-12T02:51:00.189Z,5.2
2019-05-12T02:52:08.931Z,5.2
2019-05-12T02:53:19.868Z,5.1
2019-05-12T02:54:14.122Z,5.1
2019-05-12T02:55:05.841Z,5.1
2019-05-12T02:56:00.351Z,5.1
2019-05-12T02:56:59.909Z,5.1
2019-05-12T02:57:59.185Z,5.1
2019-05-12T02:59:09.854Z,5
2019-05-12T03:00:10.298Z,5
2019-05-12T03:01:00.079Z,5
2019-05-12T03:02:00.072Z,5
2019-05-12T03:03:00.719Z,5
2019-05-12T03:04:00.298Z,5
2019-05-12T03:05:00.056Z,5
2019-05-12T03:06:00.092Z,5
2019-05-12T03:07:08.322Z,4.9
2019-05-12T03:07:59.895Z,4.9
2019-05-12T03:08:59.508Z,4.9
2019-05-12T03:09:59.584Z,4.9
2019-05-12T03:11:00.909Z,4.9
2019-05-12T03:11:59.669Z,4.9
2019-05-12T03:12:59.989Z,4.9
2019-05-12T03:13:59.761Z,4.9
2019-05-12T03:15:00.219Z,4.9
2019-05-12T03:15:59.888Z,4.9
2019-05-12T03:17:01.166Z,4.8
2019-05-12T03:17:59.537Z,4.9
2019-05-12T03:18:59.539Z,4.8
2019-05-12T03:20:00.896Z,4.8
2019-05-12T03:20:59.875Z,4.8
2019-05-12T03:22:00.285Z,4.8
2019-05-12T03:23:00.780Z,4.8
2019-05-12T03:24:01.455Z,4.8
2019-05-12T03:25:24.443Z,4.8
2019-05-12T03:26:00.564Z,4.8
2019-05-12T03:27:04.007Z,4.7
2019-05-12T03:27:59.746Z,4.7
2019-05-12T03:28:59.828Z,4.7
2019-05-12T03:29:59.740Z,4.7
2019-05-12T03:31:11.157Z,4.7
2019-05-12T03:32:00.683Z,4.7
2019-05-12T03:33:01.610Z,4.7
2019-05-12T03:34:07.663Z,4.7
2019-05-12T03:35:17.408Z,4.7
2019-05-12T03:36:08.764Z,4.6
2019-05-12T03:37:06.769Z,4.6
2019-05-12T03:38:07.849Z,4.6
2019-05-12T03:38:59.734Z,4.6
2019-05-12T03:39:59.963Z,4.6
2019-05-12T03:41:10.212Z,4.6
2019-05-12T03:42:09.556Z,4.5
2019-05-12T03:43:01.365Z,4.5
2019-05-12T03:44:00.260Z,4.5
2019-05-12T03:44:59.630Z,4.5
2019-05-12T03:46:00.682Z,4.4
2019-05-12T03:47:01.148Z,4.4
2019-05-12T03:48:19.105Z,4.4
2019-05-12T03:49:04.713Z,4.4
2019-05-12T03:49:59.641Z,4.4
2019-05-12T03:51:00.451Z,4.4
2019-05-12T03:52:00.262Z,4.3
2019-05-12T03:52:59.084Z,4.3
2019-05-12T03:54:00.521Z,4.3
2019-05-12T03:55:00.547Z,4.3
2019-05-12T03:56:00.602Z,4.3
2019-05-12T03:57:17.347Z,4.3
2019-05-12T03:58:00.764Z,4.3
2019-05-12T03:59:08.155Z,4.2
2019-05-12T04:00:01.102Z,4.2
2019-05-12T04:01:00.386Z,4.2
2019-05-12T04:02:05.446Z,4.2
2019-05-12T04:03:04.588Z,4.2
2019-05-12T04:03:59.417Z,4.2
2019-05-12T04:05:00.987Z,4.2
2019-05-12T04:06:00.766Z,4.1
2019-05-12T04:07:00.822Z,4.1
2019-05-12T04:08:00.828Z,4.1
2019-05-12T04:09:04.553Z,4.1
2019-05-12T04:09:59.824Z,4.1
2019-05-12T04:11:00.127Z,4.1
2019-05-12T04:12:00.399Z,4.1
2019-05-12T04:13:09.310Z,4.1
2019-05-12T04:14:05.461Z,4.1
2019-05-12T04:15:04.691Z,4.1
2019-05-12T04:16:00.086Z,4.1
2019-05-12T04:17:04.311Z,4.1
2019-05-12T04:17:59.267Z,4.1
2019-05-12T04:19:00.835Z,4.1
2019-05-12T04:20:00.481Z,4.1
2019-05-12T04:20:59.615Z,4.1
2019-05-12T04:22:00.887Z,4.1
2019-05-12T04:23:00.343Z,4.1
2019-05-12T04:23:59.921Z,4.1
2019-05-12T04:25:01.185Z,4.1
2019-05-12T04:26:17.756Z,4.1
2019-05-12T04:26:59.927Z,4.2
2019-05-12T04:28:00.434Z,4.2
2019-05-12T04:29:04.690Z,4.2
2019-05-12T04:30:04.929Z,4.2
2019-05-12T04:31:01.478Z,4.3
2019-05-12T04:32:00.399Z,4.3
2019-05-12T04:33:04.236Z,4.3
2019-05-12T04:34:07.993Z,4.3
2019-05-12T04:35:04.429Z,4.3
2019-05-12T04:36:00.086Z,4.4
2019-05-12T04:37:04.225Z,4.4
2019-05-12T04:38:00.360Z,4.4
2019-05-12T04:39:04.294Z,4.4
2019-05-12T04:40:00.424Z,4.4
2019-05-12T04:41:00.008Z,4.4
2019-05-12T04:42:01.024Z,4.4
2019-05-12T04:43:00.869Z,4.4
2019-05-12T04:44:05.760Z,4.4
2019-05-12T04:44:59.490Z,4.4
2019-05-12T04:45:59.685Z,4.3
2019-05-12T04:47:00.048Z,4.3
2019-05-12T04:48:05.124Z,4.3
2019-05-12T04:49:00.245Z,4.3
2019-05-12T04:50:00.561Z,4.3
2019-05-12T04:51:00.128Z,4.3
2019-05-12T04:52:00.360Z,4.3
2019-05-12T04:53:05.439Z,4.3
2019-05-12T04:54:00.141Z,4.3
2019-05-12T04:55:00.356Z,4.3
2019-05-12T04:56:20.509Z,4.3
2019-05-12T04:57:03.804Z,4.3
2019-05-12T04:58:00.504Z,4.3
2019-05-12T04:59:00.061Z,4.3
2019-05-12T05:00:00.718Z,4.3
2019-05-12T05:01:00.117Z,4.4
2019-05-12T05:01:59.937Z,4.3
2019-05-12T05:03:14.069Z,4.4
2019-05-12T05:04:00.353Z,4.4
2019-05-12T05:05:05.018Z,4.4
2019-05-12T05:05:59.724Z,4.4
2019-05-12T05:07:00.145Z,4.4
2019-05-12T05:08:09.135Z,4.5
2019-05-12T05:09:10.060Z,4.5
2019-05-12T05:10:00.355Z,4.5
2019-05-12T05:10:59.981Z,4.5
2019-05-12T05:12:00.842Z,4.6
2019-05-12T05:13:04.583Z,4.6
2019-05-12T05:14:00.050Z,4.6
2019-05-12T05:15:05.503Z,4.6
2019-05-12T05:15:59.402Z,4.7
2019-05-12T05:17:00.824Z,4.7
2019-05-12T05:18:12.855Z,4.8
2019-05-12T05:19:06.185Z,4.8
2019-05-12T05:20:07.388Z,4.8
2019-05-12T05:20:59.109Z,4.8
2019-05-12T05:22:04.541Z,4.9
2019-05-12T05:22:59.657Z,4.9
2019-05-12T05:24:03.751Z,5
2019-05-12T05:25:00.482Z,5
2019-05-12T05:26:00.046Z,5
2019-05-12T05:27:00.598Z,5.1
2019-05-12T05:28:03.891Z,5.1
2019-05-12T05:28:59.787Z,5.1
2019-05-12T05:29:59.956Z,5.1
2019-05-12T05:31:00.252Z,5.2
2019-05-12T05:32:03.327Z,5.2
2019-05-12T05:33:00.125Z,5.2
2019-05-12T05:34:04.334Z,5.2
2019-05-12T05:35:03.341Z,5.2
2019-05-12T05:35:59.364Z,5.2
2019-05-12T05:37:05.580Z,5.2
2019-05-12T05:38:00.798Z,5.2
2019-05-12T05:39:06.341Z,5.2
2019-05-12T05:40:03.708Z,5.2
2019-05-12T05:41:05.694Z,5.2
2019-05-12T05:42:01.084Z,5.3
2019-05-12T05:43:18.357Z,5.3
2019-05-12T05:44:04.966Z,5.3
2019-05-12T05:45:19.361Z,5.3
2019-05-12T05:46:07.700Z,5.3
2019-05-12T05:47:00.298Z,5.3
2019-05-12T05:48:05.308Z,5.3
2019-05-12T05:49:13.800Z,5.3
2019-05-12T05:50:00.128Z,5.2
2019-05-12T05:51:05.522Z,5.2
2019-05-12T05:52:00.447Z,5.2
2019-05-12T05:53:03.745Z,5.2
2019-05-12T05:54:00.484Z,5.2
2019-05-12T05:55:00.065Z,5.2
2019-05-12T05:56:04.014Z,5.2
2019-05-12T05:57:06.361Z,5.2
2019-05-12T05:58:10.201Z,5.1
2019-05-12T05:59:15.186Z,5.1
2019-05-12T06:00:00.580Z,5.1
2019-05-12T06:01:08.127Z,5.1
2019-05-12T06:02:01.606Z,5.1
2019-05-12T06:03:00.517Z,5.2
2019-05-12T06:04:08.742Z,5.2
2019-05-12T06:05:00.342Z,5.2
2019-05-12T06:06:10.306Z,5.3
2019-05-12T06:07:04.380Z,5.4
2019-05-12T06:08:00.740Z,5.4
2019-05-12T06:09:13.920Z,5.6
2019-05-12T06:10:01.146Z,5.6
2019-05-12T06:11:14.521Z,5.6
2019-05-12T06:12:13.024Z,5.6
2019-05-12T06:13:00.384Z,5.7
2019-05-12T06:14:12.899Z,5.7
2019-05-12T06:15:04.313Z,5.8
2019-05-12T06:16:04.661Z,5.9
2019-05-12T06:17:04.072Z,5.9
2019-05-12T06:18:04.947Z,5.9
2019-05-12T06:19:00.665Z,5.9
2019-05-12T06:20:04.115Z,6
2019-05-12T06:21:07.598Z,6
2019-05-12T06:22:03.938Z,6
2019-05-12T06:23:04.255Z,6.1
2019-05-12T06:24:03.469Z,6.1
2019-05-12T06:25:04.762Z,6.2
2019-05-12T06:26:03.759Z,6.2
2019-05-12T06:27:13.847Z,6.2
2019-05-12T06:28:07.959Z,6.3
2019-05-12T06:29:00.809Z,6.3
2019-05-12T06:30:09.117Z,6.3
2019-05-12T06:31:01.317Z,6.3
2019-05-12T06:32:06.045Z,6.4
2019-05-12T06:32:59.689Z,6.4
2019-05-12T06:34:05.849Z,6.4
2019-05-12T06:35:06.997Z,6.4
2019-05-12T06:36:33.928Z,6.4
2019-05-12T06:37:23.627Z,6.5
2019-05-12T06:38:13.144Z,6.5
2019-05-12T06:39:00.808Z,6.6
2019-05-12T06:40:04.482Z,6.6
2019-05-12T06:41:03.388Z,6.6
2019-05-12T06:42:16.930Z,6.6
2019-05-12T06:43:04.109Z,6.6
2019-05-12T06:44:19.475Z,6.6
2019-05-12T06:45:00.659Z,6.6
2019-05-12T06:46:00.013Z,6.6
2019-05-12T06:47:09.657Z,6.6
2019-05-12T06:48:03.357Z,6.6
2019-05-12T06:49:09.821Z,6.5
2019-05-12T06:50:00.575Z,6.5
2019-05-12T06:51:03.996Z,6.5
2019-05-12T06:52:06.984Z,6.5
2019-05-12T06:53:01.044Z,6.5
2019-05-12T06:54:15.293Z,6.5
2019-05-12T06:55:04.530Z,6.5
2019-05-12T06:56:00.840Z,6.5
2019-05-12T06:57:28.695Z,6.5
2019-05-12T06:58:09.660Z,6.5
2019-05-12T06:59:09.323Z,6.5
2019-05-12T07:00:04.723Z,6.5
2019-05-12T07:01:19.077Z,6.5
2019-05-12T07:02:04.111Z,6.5
2019-05-12T07:03:03.917Z,6.5
2019-05-12T07:04:06.339Z,6.5
2019-05-12T07:05:10.231Z,6.5
2019-05-12T07:06:00.120Z,6.5
2019-05-12T07:07:06.401Z,6.5
2019-05-12T07:08:00.260Z,6.5
2019-05-12T07:09:24.094Z,6.6
2019-05-12T07:10:39.249Z,6.6
2019-05-12T07:11:15.188Z,6.6
2019-05-12T07:12:10.681Z,6.7
2019-05-12T07:13:14.583Z,6.7
2019-05-12T07:14:18.677Z,6.7
2019-05-12T07:15:03.556Z,6.8
2019-05-12T07:16:23.597Z,6.8
2019-05-12T07:17:05.925Z,6.8
2019-05-12T07:18:09.940Z,6.9
2019-05-12T07:19:00.341Z,6.9
2019-05-12T07:20:00.862Z,6.9
2019-05-12T07:20:59.990Z,6.9
2019-05-12T07:22:25.930Z,7
2019-05-12T07:23:03.508Z,7
2019-05-12T07:24:14.790Z,7.1
2019-05-12T07:25:00.720Z,7.1
2019-05-12T07:26:04.697Z,7.2
2019-05-12T07:27:14.521Z,7.2
2019-05-12T07:28:14.376Z,7.2
2019-05-12T07:29:00.209Z,7.2
2019-05-12T07:30:00.485Z,7.2
2019-05-12T07:30:59.721Z,7.2
2019-05-12T07:32:34.426Z,7.3
2019-05-12T07:33:04.561Z,7.3
2019-05-12T07:33:59.386Z,7.4
2019-05-12T07:35:03.846Z,7.4
2019-05-12T07:36:06.261Z,7.4
2019-05-12T07:37:10.830Z,7.5
2019-05-12T07:38:20.735Z,7.5
2019-05-12T07:39:08.240Z,7.5
2019-05-12T07:40:04.596Z,7.5
2019-05-12T07:41:10.790Z,7.6
2019-05-12T07:42:09.960Z,7.7
2019-05-12T07:42:59.609Z,7.7
2019-05-12T07:44:09.231Z,7.8
2019-05-12T07:45:00.038Z,7.8
2019-05-12T07:46:10.623Z,7.9
2019-05-12T07:47:05.461Z,8
2019-05-12T07:48:58.805Z,8
2019-05-12T07:50:00.069Z,8
2019-05-12T07:51:00.490Z,8.1
2019-05-12T07:51:59.421Z,8.1
2019-05-12T07:53:00.405Z,8.2
2019-05-12T07:54:00.575Z,8.2
2019-05-12T07:55:01.435Z,8.2
2019-05-12T07:55:59.682Z,8.2
2019-05-12T07:57:17.490Z,8.2
2019-05-12T07:58:13.628Z,8.2
2019-05-12T07:59:13.359Z,8.2
2019-05-12T08:00:00.695Z,8.2
2019-05-12T08:01:16.665Z,8.3
2019-05-12T08:02:00.715Z,8.4
2019-05-12T08:02:59.940Z,8.4
2019-05-12T08:04:04.492Z,8.5
2019-05-12T08:05:03.794Z,8.6
2019-05-12T08:06:05.011Z,8.6
2019-05-12T08:07:04.030Z,8.7
2019-05-12T08:08:10.614Z,8.7
2019-05-12T08:09:00.976Z,8.7
2019-05-12T08:10:23.414Z,8.6
2019-05-12T08:11:05.271Z,8.6
2019-05-12T08:12:03.472Z,8.6
2019-05-12T08:13:04.326Z,8.6
2019-05-12T08:14:03.578Z,8.6
2019-05-12T08:15:05.291Z,8.6
2019-05-12T08:16:00.517Z,8.6
2019-05-12T08:17:16.773Z,8.7
2019-05-12T08:18:04.576Z,8.7
2019-05-12T08:19:01.100Z,8.8
2019-05-12T08:20:13.448Z,8.8
2019-05-12T08:21:06.037Z,8.8
2019-05-12T08:21:59.056Z,8.8
2019-05-12T08:23:14.188Z,8.9
2019-05-12T08:24:10.147Z,9
2019-05-12T08:25:08.460Z,9
2019-05-12T08:26:18.238Z,9
2019-05-12T08:27:10.297Z,9
2019-05-12T08:28:34.653Z,9
2019-05-12T08:29:00.464Z,9.1
2019-05-12T08:30:09.666Z,9.1
2019-05-12T08:31:00.703Z,9.1
2019-05-12T08:32:00.458Z,9.1
2019-05-12T08:33:10.484Z,9.1
2019-05-12T08:34:00.219Z,9.1
2019-05-12T08:35:00.498Z,9.1
2019-05-12T08:36:16.377Z,9.2
2019-05-12T08:37:13.980Z,9.3
2019-05-12T08:37:59.844Z,9.3
2019-05-12T08:39:02.796Z,9.4
2019-05-12T08:40:07.903Z,9.5
2019-05-12T08:41:00.032Z,9.6
2019-05-12T08:42:00.941Z,9.6
2019-05-12T08:43:05.499Z,9.7
2019-05-12T08:44:05.102Z,9.8
2019-05-12T08:45:14.780Z,9.8
2019-05-12T08:46:15.557Z,9.7
2019-05-12T08:47:11.990Z,9.6
2019-05-12T08:48:24.919Z,9.6
2019-05-12T08:49:10.823Z,9.6
2019-05-12T08:50:04.902Z,9.6
2019-05-12T08:51:05.168Z,9.6
2019-05-12T08:52:03.810Z,9.6
2019-05-12T08:53:00.438Z,9.6
2019-05-12T08:54:08.031Z,9.7
2019-05-12T08:55:00.287Z,9.7
2019-05-12T08:56:12.835Z,9.8
2019-05-12T08:57:17.404Z,9.9
2019-05-12T08:58:09.905Z,10
2019-05-12T08:58:59.983Z,10.1
2019-05-12T09:00:08.525Z,10.2
2019-05-12T09:01:13.627Z,10.3
2019-05-12T09:03:09.129Z,10.3
2019-05-12T09:05:38.670Z,10.6
2019-05-12T09:06:15.339Z,10.6
2019-05-12T09:08:03.728Z,10.6
2019-05-12T09:09:03.451Z,10.6
2019-05-12T09:19:33.068Z,11.2
2019-05-12T09:20:10.989Z,11.1
2019-05-12T09:21:03.571Z,11.2
2019-05-12T09:22:16.104Z,11.3
2019-05-12T09:23:07.603Z,11.4
2019-05-12T09:23:59.884Z,11.5
2019-05-12T09:25:09.839Z,11.6
2019-05-12T09:26:01.273Z,11.6
2019-05-12T09:27:10.226Z,11.6
2019-05-12T09:28:09.788Z,11.7
2019-05-12T09:29:03.289Z,11.7
2019-05-12T09:30:05.268Z,11.8
2019-05-12T09:31:00.850Z,11.8
2019-05-12T09:32:16.569Z,11.8
2019-05-12T09:33:03.983Z,11.8
2019-05-12T09:35:17.071Z,11.8
2019-05-12T09:41:34.001Z,12
2019-05-12T09:42:00.658Z,12
2019-05-12T09:43:13.872Z,12
2019-05-12T09:44:13.332Z,12
2019-05-12T14:24:26.174Z,40.6
2019-05-12T14:27:25.219Z,37.2
2019-05-12T14:28:23.224Z,35.9
2019-05-12T14:29:13.770Z,35.9
2019-05-12T14:30:21.185Z,33.5
2019-05-12T14:31:26.246Z,33.5
2019-05-12T14:32:20.703Z,31.4
2019-05-12T14:33:03.378Z,31.4
2019-05-12T14:34:23.794Z,30.4
2019-05-12T14:35:14.621Z,29.4
2019-05-12T14:36:00.418Z,29.4
2019-05-12T14:37:20.681Z,26.9
2019-05-12T14:38:36.269Z,26.1
2019-05-12T14:39:13.587Z,26.1
2019-05-12T14:40:10.051Z,24.8
2019-05-12T14:41:17.805Z,24.8
2019-05-12T14:42:44.159Z,23.5
2019-05-12T14:43:03.664Z,23.5
2019-05-12T14:44:13.700Z,23
2019-05-12T14:45:00.322Z,22.4
2019-05-12T14:46:14.406Z,21.5
2019-05-12T14:47:10.162Z,21.2
2019-05-12T14:48:05.612Z,21.2
2019-05-12T14:49:20.161Z,20.8
2019-05-12T14:50:13.827Z,20
2019-05-12T14:51:09.967Z,19.6
2019-05-12T14:52:25.660Z,19.6
2019-05-12T14:53:32.831Z,19.1
2019-05-12T14:55:03.322Z,18.8
2019-05-12T14:56:15.641Z,18.6
2019-05-12T14:57:03.494Z,18.4
2019-05-12T14:57:59.951Z,18.2
2019-05-12T14:59:24.284Z,17.9
2019-05-12T15:00:00.223Z,17.9
2019-05-12T15:39:16.773Z,14.5
2019-05-12T15:40:14.419Z,14.4
2019-05-12T15:41:30.682Z,14.4
2019-05-12T15:42:03.313Z,14.4
2019-05-12T15:43:16.338Z,14.3
2019-05-12T15:44:08.912Z,14.3
2019-05-12T15:45:12.327Z,14.3
2019-05-12T15:46:05.068Z,14.3
2019-05-12T15:47:00.006Z,14.2
2019-05-12T15:48:10.423Z,14.2
2019-05-12T15:49:03.354Z,14.2
2019-05-12T15:50:04.005Z,14.2
2019-05-12T15:51:05.075Z,14.1
2019-05-12T15:52:03.477Z,14.1
2019-05-12T15:53:00.103Z,14.1
2019-05-12T15:54:14.545Z,14
2019-05-12T15:55:00.721Z,14
2019-05-12T15:56:28.116Z,14
2019-05-12T15:57:03.721Z,14
2019-05-12T15:58:05.727Z,14
2019-05-12T15:59:04.800Z,14
2019-05-12T16:00:04.925Z,14
2019-05-12T16:01:04.364Z,14
2019-05-12T16:02:17.198Z,14
2019-05-12T16:03:01.199Z,14
2019-05-12T16:04:04.473Z,14
2019-05-12T16:05:00.081Z,13.9
2019-05-12T16:06:09.598Z,13.9
2019-05-12T16:07:03.766Z,13.9
2019-05-12T16:08:04.246Z,13.8
2019-05-12T16:09:00.388Z,13.8
2019-05-12T16:10:00.385Z,13.8
2019-05-12T16:11:05.001Z,13.8
2019-05-12T16:12:07.061Z,13.8
2019-05-12T16:13:00.303Z,13.8
2019-05-12T16:14:11.499Z,13.9
2019-05-12T16:14:59.617Z,13.9
2019-05-12T16:16:09.560Z,13.9
2019-05-12T16:17:03.324Z,13.9
2019-05-12T16:18:05.523Z,13.9
2019-05-12T16:19:00.423Z,13.9
2019-05-12T16:19:59.802Z,13.8
2019-05-12T16:21:05.019Z,13.8
2019-05-12T16:22:03.458Z,13.7
2019-05-12T16:23:00.447Z,13.7
2019-05-12T16:24:12.518Z,13.7
2019-05-12T16:25:00.323Z,13.7
2019-05-12T16:26:12.440Z,13.7
2019-05-12T16:27:00.321Z,13.7
2019-05-12T16:27:59.911Z,13.7
2019-05-12T16:29:07.316Z,13.6
2019-05-12T16:30:00.021Z,13.7
2019-05-12T16:31:11.300Z,13.7
2019-05-12T16:32:04.711Z,13.7
2019-05-12T16:33:06.563Z,13.7
2019-05-12T16:34:05.827Z,13.7
2019-05-12T16:35:07.472Z,13.7
2019-05-12T16:36:11.211Z,13.7
2019-05-12T16:37:00.956Z,13.7
2019-05-12T16:38:14.630Z,13.7
2019-05-12T16:39:08.469Z,13.7
2019-05-12T16:40:13.618Z,13.7
2019-05-12T16:41:10.197Z,13.8
2019-05-12T16:42:06.089Z,13.8
2019-05-12T16:43:04.005Z,13.8
2019-05-12T16:43:59.808Z,13.8
2019-05-12T16:45:14.543Z,13.8
2019-05-12T16:46:10.942Z,13.8
2019-05-12T16:47:09.847Z,13.8
2019-05-12T16:48:05.357Z,13.8
2019-05-12T16:49:03.183Z,13.8
2019-05-12T16:50:24.633Z,13.8
2019-05-12T16:51:03.226Z,13.8
2019-05-12T16:51:59.398Z,13.7
2019-05-12T16:53:01.050Z,13.6
2019-05-12T16:53:59.848Z,13.6
2019-05-12T16:55:03.486Z,13.5
2019-05-12T16:56:00.683Z,13.4
2019-05-12T16:57:17.787Z,13.4
2019-05-12T16:58:13.407Z,13.3
2019-05-12T16:59:07.036Z,13.3
2019-05-12T17:00:09.632Z,13.2
2019-05-12T17:01:05.400Z,13.2
2019-05-12T17:02:05.386Z,13.1
2019-05-12T17:03:03.671Z,13.1
2019-05-12T17:04:00.504Z,13
2019-05-12T17:05:20.506Z,13
2019-05-12T17:06:00.590Z,13
2019-05-12T17:07:01.332Z,12.9
2019-05-12T17:08:13.950Z,12.9
2019-05-12T17:09:10.247Z,12.9
2019-05-12T17:10:16.906Z,12.8
2019-05-12T17:11:30.840Z,12.8
2019-05-12T17:12:09.847Z,12.8
2019-05-12T17:12:59.903Z,12.8
2019-05-12T17:14:07.859Z,12.8
2019-05-12T17:15:03.994Z,12.8
2019-05-12T17:16:05.986Z,12.8
2019-05-12T17:17:00.409Z,12.7
2019-05-12T17:18:08.726Z,12.7
2019-05-12T17:19:05.889Z,12.7
2019-05-12T17:20:05.025Z,12.6
2019-05-12T17:21:10.665Z,12.6
2019-05-12T17:22:13.259Z,12.5
2019-05-12T17:23:05.404Z,12.5
2019-05-12T17:24:00.415Z,12.5
2019-05-12T17:24:59.623Z,12.4
2019-05-12T17:26:00.664Z,12.4
2019-05-12T17:27:15.567Z,12.4
2019-05-12T17:28:07.801Z,12.3
2019-05-12T17:29:04.376Z,12.3
2019-05-12T17:29:59.862Z,12.2
2019-05-12T17:31:12.608Z,12.1
2019-05-12T17:32:09.930Z,12.1
2019-05-12T17:33:05.288Z,12.1
2019-05-12T17:34:06.259Z,12
2019-05-12T17:35:14.526Z,11.9
2019-05-12T17:36:17.527Z,11.9
2019-05-12T17:37:05.025Z,11.9
2019-05-12T17:37:59.699Z,11.9
2019-05-12T17:39:13.634Z,11.8
2019-05-12T17:40:00.382Z,11.8
2019-05-12T17:41:05.347Z,11.8
2019-05-12T17:42:26.832Z,11.7
2019-05-12T17:43:12.197Z,11.7
2019-05-12T17:44:04.443Z,11.7
2019-05-12T17:45:00.505Z,11.6
2019-05-12T17:46:04.540Z,11.6
2019-05-12T17:47:12.778Z,11.6
2019-05-12T17:48:07.864Z,11.5
2019-05-12T17:48:59.419Z,11.5
2019-05-12T17:50:06.410Z,11.5
2019-05-12T17:51:03.116Z,11.4
2019-05-12T17:52:18.160Z,11.4
2019-05-12T17:53:07.676Z,11.4
2019-05-12T17:54:26.414Z,11.3
2019-05-12T17:55:11.330Z,11.3
2019-05-12T17:56:04.732Z,11.3
2019-05-12T17:57:44.541Z,11.2
2019-05-12T17:58:00.888Z,11.2
2019-05-12T18:00:06.014Z,11.1
2019-05-12T18:00:58.863Z,11.1
2019-05-12T18:02:05.558Z,11.1
2019-05-12T18:04:20.297Z,11
2019-05-12T18:05:33.768Z,11
2019-05-12T18:07:12.722Z,10.9
2019-05-12T18:08:10.850Z,10.8
2019-05-12T18:08:16.357Z,10.8
2019-05-12T18:10:00.666Z,10.8
2019-05-12T18:11:40.849Z,10.8
2019-05-12T18:12:45.465Z,10.8
2019-05-12T18:14:01.046Z,10.8
2019-05-12T18:15:14.955Z,10.6
2019-05-12T18:16:11.353Z,10.6
2019-05-12T18:17:14.132Z,10.5
2019-05-12T18:18:23.866Z,10.5
2019-05-12T18:19:03.173Z,10.5
2019-05-12T18:20:08.263Z,10.4
2019-05-12T18:21:00.142Z,10.4
2019-05-12T18:22:09.023Z,10.4
2019-05-12T18:22:59.095Z,10.3
2019-05-12T18:24:06.636Z,10.3
2019-05-12T18:24:59.085Z,10.3
2019-05-12T18:26:02.901Z,10.3
2019-05-12T18:27:07.819Z,10.3
2019-05-12T18:27:59.070Z,10.2
2019-05-12T18:28:59.301Z,10.2
2019-05-12T18:29:59.344Z,10.2
2019-05-12T18:30:59.890Z,10.1
2019-05-12T18:31:59.649Z,10.1
2019-05-12T18:33:09.568Z,10.1
2019-05-12T18:33:59.364Z,10
2019-05-12T18:34:59.186Z,10
2019-05-12T18:36:03.833Z,10
2019-05-12T18:37:10.427Z,10
2019-05-12T18:37:58.744Z,9.9
2019-05-12T18:39:15.201Z,9.9
2019-05-12T18:39:58.803Z,9.9
2019-05-12T18:41:19.659Z,9.8
2019-05-12T18:42:00.467Z,9.8
2019-05-12T18:42:59.606Z,9.8
2019-05-12T18:43:59.794Z,9.8
2019-05-12T18:45:17.710Z,9.7
2019-05-12T18:46:09.114Z,9.7
2019-05-12T18:47:08.819Z,9.7
2019-05-12T18:48:07.928Z,9.7
2019-05-12T18:49:16.150Z,9.6
2019-05-12T18:50:10.143Z,9.6
2019-05-12T18:51:17.268Z,9.6
2019-05-12T18:52:00.115Z,9.6
2019-05-12T18:53:00.544Z,9.5
2019-05-12T18:54:03.510Z,9.5
2019-05-12T18:54:59.727Z,9.5
2019-05-12T18:56:29.230Z,9.4
2019-05-12T18:57:09.728Z,9.4
2019-05-12T18:57:59.315Z,9.4
2019-05-12T18:59:16.285Z,9.4
2019-05-12T19:00:09.155Z,9.4
2019-05-12T19:00:59.106Z,9.3
2019-05-12T19:02:03.565Z,9.3
2019-05-12T19:03:13.984Z,9.3
2019-05-12T19:03:59.589Z,9.3
2019-05-12T19:05:00.602Z,9.2
2019-05-12T19:06:00.170Z,9.2
2019-05-12T19:07:09.409Z,9.2
2019-05-12T19:07:59.778Z,9.2
2019-05-12T19:08:59.558Z,9.2
2019-05-12T19:10:09.894Z,9.1
2019-05-12T19:10:59.799Z,9.1
2019-05-12T19:11:59.389Z,9
2019-05-12T19:13:09.174Z,9.1
2019-05-12T19:13:59.644Z,9
2019-05-12T19:16:07.258Z,9
2019-05-12T19:16:18.258Z,9
2019-05-12T19:17:08.836Z,8.9
2019-05-12T19:17:58.798Z,8.9
2019-05-12T19:18:59.053Z,8.9
2019-05-12T19:20:02.501Z,8.9
2019-05-12T19:20:59.261Z,8.9
2019-05-12T19:22:09.779Z,8.8
2019-05-12T19:23:03.538Z,8.8
2019-05-12T19:23:59.859Z,8.8
2019-05-12T19:25:03.973Z,8.7